Latest Coastal Weather Observations for Rowley Shoals

IDW60701

Issued at 3:32 pm WST Saturday 4 July 2015 (issued every 10 minutes, with the page automatically refreshed every 10 minutes)

About coastal observations | Map of coastal stations | Coastal observations for WA | Marine services | Other Formats
Station Details ID: 200713 Name: ROWLEY SHOALS Lat: -17.52 Lon: 118.95 Height: 0.0 m
Data from the previous 72 hours. | See also: Recent months for locations in Western Australia
Date/Time
WST
Temp

°C
Wind Pressure Rain
since 9am
mm
Weather Cloud Vis
km
Sea
Height
m
Swell
Dir
 
Speed
knots
Gust
knots
hPa Trend Height
m
Period
s
Dir
04/03:30pm - ESE 18 22 1014.4 - - - - - - - - -
04/03:00pm - ESE 19 22 1014.4 - - - - - - - - -
04/02:30pm - ESE 19 22 1014.4 - - - - - - - - -
04/02:00pm - ESE 20 23 1014.6 - - - - - - - - -
04/01:30pm - ESE 20 24 1014.9 - - - - - - - - -
04/01:00pm - ESE 21 26 1015.0 - - - - - - - - -
04/12:30pm - ESE 22 26 1015.4 - - - - - - - - -
04/12:00pm - ESE 23 26 1015.9 - - - - - - - - -
04/11:30am - ESE 23 26 1016.4 - - - - - - - - -
04/11:00am - ESE 23 26 1016.7 - - - - - - - - -
04/10:30am - ESE 23 27 1016.9 - - - - - - - - -
04/10:00am - ESE 25 29 1016.9 - - - - - - - - -
04/09:30am - ESE 24 29 1017.2 - - - - - - - - -
04/09:00am - ESE 24 29 1017.2 - - - - - - - - -
04/08:30am - ESE 24 29 1017.1 - - - - - - - - -
04/08:00am - ESE 24 30 1017.0 - - - - - - - - -
04/07:30am - ESE 23 27 1016.6 - - - - - - - - -
04/07:00am - ESE 24 27 1016.4 - - - - - - - - -
04/06:30am - ESE 23 27 1016.1 - - - - - - - - -
04/06:00am - ESE 24 28 1015.9 - - - - - - - - -
04/05:30am - ESE 25 30 1015.5 - - - - - - - - -
04/05:00am - ESE 24 28 1015.5 - - - - - - - - -
04/04:30am - SE 24 28 1015.4 - - - - - - - - -
04/04:00am - SE 25 29 1015.3 - - - - - - - - -
04/03:30am - SE 23 29 1015.2 - - - - - - - - -
04/03:00am - SE 24 29 1015.2 - - - - - - - - -
04/02:30am - SE 24 28 1015.2 - - - - - - - - -
04/02:00am - SSE 23 28 1015.3 - - - - - - - - -
04/01:30am - SSE 21 24 1015.4 - - - - - - - - -
04/01:00am - SSE 20 23 1015.5 - - - - - - - - -
04/12:30am - SSE 18 21 1015.6 - - - - - - - - -
04/12:00am - SSE 17 20 1015.8 - - - - - - - - -
 
Date/Time
WST
Temp

°C
Wind Pressure Rain
since 9am
mm
Weather Cloud Vis
km
Sea
Height
m
Swell
Dir
 
Speed
knots
Gust
knots
hPa Trend Height
m
Period
s
Dir
03/11:30pm - SE 16 19 1016.1 - - - - - - - - -
03/11:00pm - SE 17 18 1016.1 - - - - - - - - -
03/10:30pm - SE 15 17 1016.5 - - - - - - - - -
03/10:00pm - SE 14 16 1016.6 - - - - - - - - -
03/09:30pm - SE 15 17 1016.6 - - - - - - - - -
03/09:00pm - SE 15 17 1016.7 - - - - - - - - -
03/08:30pm - SE 16 18 1016.6 - - - - - - - - -
03/08:00pm - SE 15 18 1016.5 - - - - - - - - -
03/07:30pm - SE 15 17 1016.3 - - - - - - - - -
03/07:00pm - SE 16 19 1016.2 - - - - - - - - -
03/06:30pm - SE 17 19 1015.9 - - - - - - - - -
03/06:00pm - SE 17 19 1015.6 - - - - - - - - -
03/05:30pm - SE 16 19 1015.5 - - - - - - - - -
03/05:00pm - SE 17 19 1015.3 - - - - - - - - -
03/04:30pm - ESE 15 18 1014.9 - - - - - - - - -
03/04:00pm - ESE 16 18 1014.8 - - - - - - - - -
03/03:30pm - ESE 15 18 1014.8 - - - - - - - - -
03/03:00pm - ESE 18 20 1014.9 - - - - - - - - -
03/02:30pm - ESE 17 20 1015.0 - - - - - - - - -
03/02:00pm - ESE 18 20 1015.2 - - - - - - - - -
03/01:30pm - E 18 20 1015.4 - - - - - - - - -
03/01:00pm - ESE 18 22 1015.6 - - - - - - - - -
03/12:30pm - E 19 22 1015.9 - - - - - - - - -
03/12:00pm - E 19 22 1016.3 - - - - - - - - -
03/11:30am - E 17 20 1016.8 - - - - - - - - -
03/11:00am - E 18 21 1017.2 - - - - - - - - -
03/10:30am - ESE 17 19 1017.4 - - - - - - - - -
03/10:00am - ESE 15 18 1017.5 - - - - - - - - -
03/09:30am - SE 16 18 1017.7 - - - - - - - - -
03/09:00am - SE 15 17 1017.7 - - - - - - - - -
03/08:30am - SSE 15 17 1017.3 - - - - - - - - -
03/08:00am - SE 16 18 1017.2 - - - - - - - - -
03/07:30am - SE 13 16 1017.1 - - - - - - - - -
03/07:00am - SE 15 17 1017.0 - - - - - - - - -
03/06:30am - SE 16 19 1016.8 - - - - - - - - -
03/06:00am - SE 18 22 1016.6 - - - - - - - - -
03/05:30am - SE 16 18 1016.4 - - - - - - - - -
03/05:00am - SE 16 18 1016.2 - - - - - - - - -
03/04:30am - ESE 14 16 1016.2 - - - - - - - - -
03/04:00am - ESE 13 16 1016.2 - - - - - - - - -
03/03:30am - SE 11 13 1016.1 - - - - - - - - -
03/03:00am - SSE 12 15 1016.0 - - - - - - - - -
03/02:30am - SSE 14 15 1016.3 - - - - - - - - -
03/02:00am - SSE 13 15 1016.5 - - - - - - - - -
03/01:30am - SSE 14 15 1016.9 - - - - - - - - -
03/01:00am - SSE 14 16 1016.9 - - - - - - - - -
03/12:30am - SSE 14 16 1017.3 - - - - - - - - -
03/12:00am - SSE 14 16 1017.4 - - - - - - - - -
 
Date/Time
WST
Temp

°C
Wind Pressure Rain
since 9am
mm
Weather Cloud Vis
km
Sea
Height
m
Swell
Dir
 
Speed
knots
Gust
knots
hPa Trend Height
m
Period
s
Dir
02/11:30pm - SE 13 14 1017.7 - - - - - - - - -
02/11:00pm - SE 12 14 1017.8 - - - - - - - - -
02/10:30pm - SE 10 11 1018.1 - - - - - - - - -
02/10:00pm - SE 10 12 1018.1 - - - - - - - - -
02/09:30pm - SE 11 12 1018.2 - - - - - - - - -
02/09:00pm - SE 12 15 1018.0 - - - - - - - - -
02/08:30pm - SE 13 15 1018.0 - - - - - - - - -
02/08:00pm - SE 11 13 1017.9 - - - - - - - - -
02/07:30pm - SE 13 14 1017.5 - - - - - - - - -
02/07:00pm - SE 13 15 1017.3 - - - - - - - - -
02/06:30pm - SE 11 13 1017.0 - - - - - - - - -
02/06:00pm - ESE 13 16 1017.0 - - - - - - - - -
02/05:30pm - ESE 12 15 1016.7 - - - - - - - - -
02/05:00pm - ESE 13 15 1016.5 - - - - - - - - -
02/04:30pm - ESE 15 16 1016.2 - - - - - - - - -
02/04:00pm - ESE 13 15 1016.1 - - - - - - - - -
02/03:30pm - ESE 14 16 1016.0 - - - - - - - - -
02/03:00pm - ESE 15 17 1015.9 - - - - - - - - -
02/02:30pm - ESE 14 17 1016.1 - - - - - - - - -
02/02:00pm - ESE 14 16 1016.2 - - - - - - - - -
02/01:30pm - ESE 14 16 1016.6 - - - - - - - - -
02/01:00pm - ESE 14 18 1016.8 - - - - - - - - -
02/12:30pm - SE 16 18 1017.3 - - - - - - - - -
02/12:00pm - SE 15 19 1017.6 - - - - - - - - -
02/11:30am - SE 12 13 1018.1 - - - - - - - - -
02/11:00am - SE 14 17 1018.5 - - - - - - - - -
02/10:30am - SE 14 16 1019.0 - - - - - - - - -
02/10:00am - SE 13 15 1019.1 - - - - - - - - -
02/09:30am - SSE 15 17 1019.2 - - - - - - - - -
02/09:00am - SSE 14 16 1019.2 - - - - - - - - -
02/08:30am - SSE 16 20 1019.2 - - - - - - - - -
02/08:00am - SE 13 16 1019.0 - - - - - - - - -
02/07:30am - SE 12 14 1018.8 - - - - - - - - -
02/07:00am - SE 12 15 1018.7 - - - - - - - - -
02/06:30am - SE 12 13 1018.5 - - - - - - - - -
02/06:00am - SE 13 15 1018.4 - - - - - - - - -
02/05:30am - SE 13 15 1018.2 - - - - - - - - -
02/05:00am - SE 12 13 1018.1 - - - - - - - - -
02/04:30am - SE 12 14 1018.0 - - - - - - - - -
02/04:00am - SSE 10 12 1018.0 - - - - - - - - -
02/03:30am - SSE 9 11 1017.9 - - - - - - - - -
02/03:00am - S 5 7 1017.9 - - - - - - - - -
02/02:30am - S 5 7 1018.0 - - - - - - - - -
02/02:00am - SSW 6 7 1018.0 - - - - - - - - -
02/01:30am - S 5 7 1018.4 - - - - - - - - -
02/01:00am - S 4 5 1018.5 - - - - - - - - -
02/12:30am - S 4 6 1018.7 - - - - - - - - -
02/12:00am - SE 11 13 1018.9 - - - - - - - - -
 
Date/Time
WST
Temp

°C
Wind Pressure Rain
since 9am
mm
Weather Cloud Vis
km
Sea
Height
m
Swell
Dir
 
Speed
knots
Gust
knots
hPa Trend Height
m
Period
s
Dir
01/11:30pm - ESE 12 14 1019.0 - - - - - - - - -
01/11:00pm - ESE 12 15 1019.1 - - - - - - - - -
01/10:30pm - ESE 14 16 1019.1 - - - - - - - - -
01/10:00pm - ESE 13 16 1019.0 - - - - - - - - -
01/09:30pm - ESE 14 17 1019.1 - - - - - - - - -
01/09:00pm - ESE 16 18 1019.0 - - - - - - - - -
01/08:30pm - ESE 14 16 1018.9 - - - - - - - - -
01/08:00pm - ESE 14 17 1018.8 - - - - - - - - -
01/07:30pm - SE 15 16 1018.3 - - - - - - - - -
01/07:00pm - SE 15 17 1018.1 - - - - - - - - -
01/06:30pm - SE 13 16 1017.8 - - - - - - - - -
01/06:00pm - SE 13 15 1017.5 - - - - - - - - -
01/05:30pm - ESE 13 15 1017.3 - - - - - - - - -
01/05:00pm - SE 13 16 1017.1 - - - - - - - - -
01/04:30pm - ESE 13 15 1016.9 - - - - - - - - -
01/04:00pm - ESE 13 15 1016.9 - - - - - - - - -

Other Formats:

Comma delimited format used in spreadsheet applications
http://www.bom.gov.au/fwo/IDW60701/IDW60701.94207.axf

JavaScript Object Notation format (JSON) in row-major order
http://www.bom.gov.au/fwo/IDW60701/IDW60701.94207.json